Time;durP1;ratioP1;P1;durP2;ratioP2;P2;SDS_P1;SDS_P2;PMS_P1;PMS_P2;Temp;Humidity;BMP_temperature;BMP_pressure;BME280_temperature;BME280_humidity;BME280_pressure;Samples;Min_cycle;Max_cycle;Signal;HPM_P1;HPM_P2
2021/09/16 00:01:26;;;;;;;;;;;;;;;12.82;54.94;99610.63;3363479;29;19947;-77
2021/09/16 00:03:07;;;;;;;;;;;;;;;12.81;54.91;99610.88;3362784;29;20026;-77
2021/09/16 00:04:47;;;;;;;;;;;;;;;12.78;55.01;99613.97;3364767;29;19928;-77
2021/09/16 00:06:28;;;;;;;;;;;;;;;12.78;55.03;99619.31;3355796;29;19928;-77
2021/09/16 00:08:08;;;;;;;;;;;;;;;12.78;54.94;99613.97;3350174;29;19932;-77
2021/09/16 00:09:49;;;;;;;;;;;;;;;12.77;54.94;99625.69;3350296;29;19928;-78
2021/09/16 00:11:30;;;;;;;;;;;;;;;12.74;54.87;99618.09;3350391;29;19935;-77
2021/09/16 00:13:10;;;;;;;;;;;;;;;12.75;54.85;99622.38;3350101;29;19928;-76
2021/09/16 00:14:51;;;;;;;;;;;;;;;12.75;55.04;99617.03;3358394;29;19928;-78
2021/09/16 00:16:31;;;;;;;;;;;;;;;12.74;54.81;99618.09;3362415;29;20010;-78
2021/09/16 00:18:12;;;;;;;;;;;;;;;12.74;54.75;99620.75;3362887;29;19928;-77
2021/09/16 00:19:52;;;;;;;;;;;;;;;12.77;54.68;99623.00;3362655;29;19969;-78
2021/09/16 00:21:33;;;;;;;;;;;;;;;12.78;54.80;99617.47;3363123;29;20285;-77
2021/09/16 00:23:13;;;;;;;;;;;;;;;12.79;54.66;99620.94;3363270;29;19953;-77
2021/09/16 00:24:54;;;;;;;;;;;;;;;12.79;54.77;99618.28;3351229;29;20471;-77
2021/09/16 00:26:34;;;;;;;;;;;;;;;12.79;54.81;99626.28;3349910;29;20388;-77
2021/09/16 00:28:15;;;;;;;;;;;;;;;12.79;54.80;99626.28;3349068;29;19928;-76
2021/09/16 00:29:56;;;;;;;;;;;;;;;12.78;54.91;99630.81;3350070;29;19932;-77
2021/09/16 00:31:36;;;;;;;;;;;;;;;12.80;54.90;99627.94;3349947;29;19932;-75
2021/09/16 00:33:17;;;;;;;;;;;;;;;12.82;54.92;99625.88;3350215;29;19935;-76
2021/09/16 00:34:57;;;;;;;;;;;;;;;12.82;54.93;99633.91;3360279;29;19928;-76
2021/09/16 00:36:38;;;;;;;;;;;;;;;12.81;54.98;99635.75;3362664;29;19938;-76
2021/09/16 00:38:18;;;;;;;;;;;;;;;12.80;54.94;99638.63;3362955;29;20331;-76
2021/09/16 00:39:59;;;;;;;;;;;;;;;12.80;54.79;99639.47;3362141;29;20392;-76
2021/09/16 00:41:39;;;;;;;;;;;;;;;12.80;54.91;99646.66;3365208;29;19935;-78
2021/09/16 00:43:20;;;;;;;;;;;;;;;12.81;54.71;99645.63;3365355;29;20391;-78
2021/09/16 00:45:01;;;;;;;;;;;;;;;12.84;54.75;99643.34;3363659;29;19928;-79
2021/09/16 00:46:41;;;;;;;;;;;;;;;12.89;54.78;99648.06;3365143;29;19992;-79
2021/09/16 00:48:22;;;;;;;;;;;;;;;12.93;54.55;99649.28;3364676;29;19927;-79
2021/09/16 00:50:02;;;;;;;;;;;;;;;12.94;54.77;99647.44;3365526;29;20022;-79
2021/09/16 00:51:44;;;;;;;;;;;;;;;12.91;54.71;99648.69;3365725;29;19984;-76
2021/09/16 00:53:28;;;;;;;;;;;;;;;12.90;54.70;99644.34;3364576;29;19928;-75
2021/09/16 00:55:09;;;;;;;;;;;;;;;12.87;54.72;99648.28;3353130;29;20508;-75
2021/09/16 00:56:49;;;;;;;;;;;;;;;12.85;54.67;99650.34;3351424;29;19928;-75
2021/09/16 00:58:30;;;;;;;;;;;;;;;12.84;54.88;99653.22;3338951;29;20369;-75
2021/09/16 01:00:11;;;;;;;;;;;;;;;12.75;54.61;99641.94;3348745;29;19928;-75
2021/09/16 01:01:51;;;;;;;;;;;;;;;12.77;54.81;99655.91;3351454;29;20027;-74
2021/09/16 01:03:32;;;;;;;;;;;;;;;12.75;54.71;99658.00;3352235;29;20400;-75
2021/09/16 01:05:12;;;;;;;;;;;;;;;12.74;54.63;99652.84;3363886;29;19928;-75
2021/09/16 01:06:53;;;;;;;;;;;;;;;12.69;54.60;99664.16;3360244;29;19924;-74
2021/09/16 01:08:34;;;;;;;;;;;;;;;12.66;54.77;99669.94;3352394;29;19971;-76
2021/09/16 01:10:16;;;;;;;;;;;;;;;12.68;54.78;99667.06;3351342;29;19959;-77
2021/09/16 01:11:56;;;;;;;;;;;;;;;12.72;54.85;99668.28;3352081;29;19928;-76
2021/09/16 01:13:37;;;;;;;;;;;;;;;12.75;54.64;99671.38;3351185;29;20366;-76
2021/09/16 01:15:18;;;;;;;;;;;;;;;12.77;54.44;99666.59;3352122;29;19978;-76
2021/09/16 01:17:00;;;;;;;;;;;;;;;12.81;54.58;99675.06;3356602;29;20036;-75
2021/09/16 01:18:40;;;;;;;;;;;;;;;12.81;54.60;99672.38;3364064;29;19963;-75
2021/09/16 01:20:23;;;;;;;;;;;;;;;12.81;54.54;99665.19;3364854;29;19927;-76
2021/09/16 01:22:04;;;;;;;;;;;;;;;12.81;54.53;99669.72;3363878;29;20391;-78
2021/09/16 01:23:44;;;;;;;;;;;;;;;12.82;54.50;99677.50;3364914;29;20785;-76
2021/09/16 01:25:29;;;;;;;;;;;;;;;12.83;54.41;99672.97;3364993;29;20296;-76
2021/09/16 01:27:09;;;;;;;;;;;;;;;12.80;54.47;99671.56;3358881;29;19955;-76
2021/09/16 01:28:50;;;;;;;;;;;;;;;12.82;54.41;99684.72;3351849;29;20300;-76
2021/09/16 01:30:31;;;;;;;;;;;;;;;12.81;54.39;99680.41;3352168;29;20427;-76
2021/09/16 01:32:11;;;;;;;;;;;;;;;12.79;54.43;99685.13;3351791;29;19935;-77
2021/09/16 01:33:52;;;;;;;;;;;;;;;12.79;54.37;99683.28;3352302;29;20860;-77
2021/09/16 01:35:35;;;;;;;;;;;;;;;12.81;54.26;99685.75;3351509;29;19928;-76
2021/09/16 01:37:15;;;;;;;;;;;;;;;12.80;54.04;99686.78;3356837;29;19928;-77
2021/09/16 01:38:56;;;;;;;;;;;;;;;12.77;54.14;99687.19;3361419;29;20029;-81
2021/09/16 01:40:36;;;;;;;;;;;;;;;12.74;54.29;99690.28;3350996;29;19928;-77
2021/09/16 01:42:17;;;;;;;;;;;;;;;12.76;54.27;99698.94;3361958;29;19986;-75
2021/09/16 01:43:57;;;;;;;;;;;;;;;12.74;54.08;99695.63;3363802;29;19932;-77
2021/09/16 01:45:38;;;;;;;;;;;;;;;12.77;54.17;99692.53;3364442;29;19931;-77
2021/09/16 01:47:18;;;;;;;;;;;;;;;12.78;54.04;99696.88;3358308;29;19932;-77
2021/09/16 01:48:59;;;;;;;;;;;;;;;12.77;53.97;99698.69;3352039;29;19992;-78
2021/09/16 01:50:40;;;;;;;;;;;;;;;12.76;53.82;99686.38;3350661;29;20423;-75
2021/09/16 01:52:20;;;;;;;;;;;;;;;12.77;53.57;99697.88;3351788;29;19928;-75
2021/09/16 01:54:01;;;;;;;;;;;;;;;12.72;53.69;99690.47;3351919;29;20104;-77
2021/09/16 01:55:42;;;;;;;;;;;;;;;12.70;53.68;99695.25;3350497;29;20316;-75
2021/09/16 01:57:22;;;;;;;;;;;;;;;12.69;53.83;99706.13;3357689;29;20066;-74
2021/09/16 01:59:03;;;;;;;;;;;;;;;12.71;53.94;99706.75;3364274;29;19934;-77
2021/09/16 02:00:43;;;;;;;;;;;;;;;12.70;53.95;99699.75;3364445;29;19927;-75
2021/09/16 02:02:24;;;;;;;;;;;;;;;12.71;53.97;99710.25;3364397;29;19927;-74
2021/09/16 02:04:05;;;;;;;;;;;;;;;12.74;53.84;99706.34;3364207;29;19927;-75
2021/09/16 02:05:45;;;;;;;;;;;;;;;12.79;53.87;99704.66;3364517;29;19928;-73
2021/09/16 02:07:26;;;;;;;;;;;;;;;12.86;53.72;99699.31;3356746;29;20026;-77
2021/09/16 02:09:06;;;;;;;;;;;;;;;12.96;53.72;99706.91;3348196;29;19969;-77
2021/09/16 02:10:47;;;;;;;;;;;;;;;13.02;53.62;99709.56;3325893;29;19928;-75
2021/09/16 02:12:27;;;;;;;;;;;;;;;13.07;53.49;99714.28;3346365;29;20389;-76
2021/09/16 02:14:08;;;;;;;;;;;;;;;13.12;53.55;99719.84;3351824;29;19928;-76
2021/09/16 02:15:48;;;;;;;;;;;;;;;13.11;53.39;99710.16;3351356;29;19928;-78
2021/09/16 02:17:29;;;;;;;;;;;;;;;13.06;53.33;99716.16;3357931;29;20382;-76
2021/09/16 02:19:09;;;;;;;;;;;;;;;13.05;53.34;99717.16;3364271;29;19928;-77
2021/09/16 02:20:50;;;;;;;;;;;;;;;13.01;53.44;99721.31;3364368;29;20396;-77
2021/09/16 02:22:30;;;;;;;;;;;;;;;13.03;53.55;99718.41;3363381;29;20519;-78
2021/09/16 02:24:11;;;;;;;;;;;;;;;13.03;53.40;99719.22;3364132;29;19924;-78
2021/09/16 02:25:51;;;;;;;;;;;;;;;13.08;53.40;99724.75;3364063;29;20424;-78
2021/09/16 02:27:32;;;;;;;;;;;;;;;13.08;53.60;99715.94;3356030;29;19932;-79
2021/09/16 02:29:12;;;;;;;;;;;;;;;13.09;53.63;99723.75;3350857;29;19981;-77
2021/09/16 02:30:53;;;;;;;;;;;;;;;13.09;53.35;99726.44;3351141;29;19927;-77
2021/09/16 02:32:34;;;;;;;;;;;;;;;13.08;53.46;99727.44;3351561;29;19920;-78
2021/09/16 02:34:14;;;;;;;;;;;;;;;13.12;53.47;99732.41;3351213;29;21045;-78
2021/09/16 02:35:55;;;;;;;;;;;;;;;13.11;53.37;99731.56;3351863;29;19984;-78
2021/09/16 02:37:35;;;;;;;;;;;;;;;13.09;53.28;99737.13;3357690;29;20018;-78
2021/09/16 02:39:16;;;;;;;;;;;;;;;13.05;53.56;99743.91;3362203;29;20448;-77
2021/09/16 02:40:56;;;;;;;;;;;;;;;13.03;53.38;99745.97;3365839;29;19959;-77
2021/09/16 02:42:37;;;;;;;;;;;;;;;13.00;53.41;99742.91;3364032;29;19928;-77
2021/09/16 02:44:18;;;;;;;;;;;;;;;13.02;53.72;99744.34;3363900;29;19975;-76
2021/09/16 02:45:58;;;;;;;;;;;;;;;13.04;53.57;99755.66;3364019;29;19937;-77
2021/09/16 02:47:39;;;;;;;;;;;;;;;13.08;53.58;99746.16;3363144;29;19974;-78
2021/09/16 02:49:19;;;;;;;;;;;;;;;13.10;53.52;99749.47;3364029;29;19992;-77
2021/09/16 02:51:00;;;;;;;;;;;;;;;13.06;53.47;99756.28;3364041;29;19928;-78
2021/09/16 02:52:40;;;;;;;;;;;;;;;13.07;53.74;99760.59;3364143;29;20415;-77
2021/09/16 02:54:21;;;;;;;;;;;;;;;13.04;53.87;99755.66;3364411;29;20020;-77
2021/09/16 02:56:02;;;;;;;;;;;;;;;13.00;53.91;99762.44;3363654;29;20395;-75
2021/09/16 02:57:43;;;;;;;;;;;;;;;12.98;53.96;99758.34;3355044;29;19944;-77
2021/09/16 02:59:24;;;;;;;;;;;;;;;12.95;54.19;99748.06;3350567;29;20018;-78
2021/09/16 03:01:04;;;;;;;;;;;;;;;12.94;54.24;99762.47;3351051;29;20022;-78
2021/09/16 03:02:45;;;;;;;;;;;;;;;12.91;54.44;99757.53;3350023;29;19987;-77
2021/09/16 03:04:25;;;;;;;;;;;;;;;12.88;54.55;99759.59;3350736;29;19994;-76
2021/09/16 03:06:06;;;;;;;;;;;;;;;12.86;54.62;99763.53;3351045;29;20254;-76
2021/09/16 03:07:47;;;;;;;;;;;;;;;12.88;54.52;99758.75;3358633;29;19935;-76
2021/09/16 03:09:27;;;;;;;;;;;;;;;12.93;54.74;99763.50;3363780;29;19928;-76
2021/09/16 03:11:08;;;;;;;;;;;;;;;12.97;54.74;99764.72;3363591;29;20420;-77
2021/09/16 03:12:48;;;;;;;;;;;;;;;12.97;54.92;99770.09;3363719;29;19955;-75
2021/09/16 03:14:29;;;;;;;;;;;;;;;12.91;54.98;99769.06;3363780;29;19928;-75
2021/09/16 03:16:10;;;;;;;;;;;;;;;12.84;54.93;99771.75;3363428;29;20306;-74
2021/09/16 03:17:50;;;;;;;;;;;;;;;12.80;55.23;99780.38;3355112;29;20023;-76
2021/09/16 03:19:31;;;;;;;;;;;;;;;12.74;55.69;99781.22;3350918;29;19928;-75
2021/09/16 03:21:11;;;;;;;;;;;;;;;12.66;55.60;99771.53;3349617;29;20412;-75
2021/09/16 03:22:52;;;;;;;;;;;;;;;12.60;55.83;99770.53;3350396;29;20432;-74
2021/09/16 03:24:32;;;;;;;;;;;;;;;12.58;55.96;99764.56;3349333;29;20468;-75
2021/09/16 03:26:13;;;;;;;;;;;;;;;12.57;55.98;99770.94;3350436;29;19928;-75
2021/09/16 03:27:53;;;;;;;;;;;;;;;12.57;55.90;99767.41;3358774;29;19927;-75
2021/09/16 03:29:34;;;;;;;;;;;;;;;12.56;56.17;99771.94;3362854;29;19927;-76
2021/09/16 03:31:14;;;;;;;;;;;;;;;12.57;56.27;99770.94;3362001;29;19981;-76
2021/09/16 03:32:56;;;;;;;;;;;;;;;12.58;56.40;99775.25;3363065;29;19934;-75
2021/09/16 03:34:37;;;;;;;;;;;;;;;12.61;56.61;99780.19;3363005;29;20307;-76
2021/09/16 03:36:17;;;;;;;;;;;;;;;12.58;56.16;99775.25;3363432;29;19967;-75
2021/09/16 03:37:58;;;;;;;;;;;;;;;12.52;56.87;99778.75;3354497;29;20388;-75
2021/09/16 03:39:38;;;;;;;;;;;;;;;12.44;56.77;99770.91;3350487;29;19932;-75
2021/09/16 03:41:19;;;;;;;;;;;;;;;12.42;56.64;99776.47;3350546;29;20023;-75
2021/09/16 03:42:59;;;;;;;;;;;;;;;12.44;56.76;99770.91;3361242;29;20015;-75
2021/09/16 03:44:40;;;;;;;;;;;;;;;12.45;56.84;99780.59;3360760;29;19928;-76
2021/09/16 03:46:20;;;;;;;;;;;;;;;12.47;56.86;99777.69;3362950;29;19928;-76
2021/09/16 03:48:01;;;;;;;;;;;;;;;12.48;56.90;99779.34;3363041;29;19927;-75
2021/09/16 03:49:41;;;;;;;;;;;;;;;12.47;56.95;99783.88;3362100;29;19928;-74
2021/09/16 03:51:22;;;;;;;;;;;;;;;12.47;56.96;99789.25;3362951;29;19928;-74
2021/09/16 03:53:02;;;;;;;;;;;;;;;12.48;57.24;99795.41;3363427;29;19928;-75
2021/09/16 03:54:43;;;;;;;;;;;;;;;12.49;56.85;99786.34;3353961;29;20427;-76
2021/09/16 03:56:24;;;;;;;;;;;;;;;12.50;57.20;99799.53;3350048;29;19928;-75
2021/09/16 03:58:04;;;;;;;;;;;;;;;12.48;57.01;99790.88;3350107;29;19928;-76
2021/09/16 03:59:45;;;;;;;;;;;;;;;12.43;57.11;99796.00;3350406;29;19928;-77
2021/09/16 04:01:25;;;;;;;;;;;;;;;12.43;57.20;99794.16;3350334;29;20399;-76
2021/09/16 04:03:09;;;;;;;;;;;;;;;12.45;57.63;99796.63;3350159;29;19928;-76
2021/09/16 04:04:49;;;;;;;;;;;;;;;12.47;57.45;99794.59;3353904;29;20035;-77
2021/09/16 04:06:30;;;;;;;;;;;;;;;12.52;57.51;99800.16;3349759;29;19932;-76
2021/09/16 04:08:10;;;;;;;;;;;;;;;12.52;57.52;99805.50;3349976;29;19928;-75
2021/09/16 04:09:51;;;;;;;;;;;;;;;12.50;57.53;99807.53;3352592;29;19932;-76
2021/09/16 04:11:31;;;;;;;;;;;;;;;12.50;57.37;99802.19;3362863;29;19974;-76
2021/09/16 04:13:12;;;;;;;;;;;;;;;12.50;57.39;99810.22;3361961;29;19928;-76
2021/09/16 04:14:53;;;;;;;;;;;;;;;12.50;57.97;99810.22;3362508;29;20403;-78
2021/09/16 04:16:33;;;;;;;;;;;;;;;12.51;57.82;99805.69;3348702;29;19928;-78
2021/09/16 04:18:14;;;;;;;;;;;;;;;12.44;57.88;99816.34;3360518;29;19979;-81
2021/09/16 04:19:54;;;;;;;;;;;;;;;12.40;57.68;99815.13;3358340;29;19928;-78
2021/09/16 04:21:35;;;;;;;;;;;;;;;12.36;57.94;99819.22;3349976;29;19928;-79
2021/09/16 04:23:16;;;;;;;;;;;;;;;12.35;58.21;99812.25;3349293;29;20018;-80
2021/09/16 04:24:56;;;;;;;;;;;;;;;12.37;58.18;99816.34;3350166;29;19935;-78
2021/09/16 04:26:37;;;;;;;;;;;;;;;12.39;58.48;99816.13;3350382;29;20026;-78
2021/09/16 04:28:17;;;;;;;;;;;;;;;12.37;58.33;99815.53;3349176;29;20388;-75
2021/09/16 04:29:58;;;;;;;;;;;;;;;12.36;58.38;99830.72;3349657;29;20296;-76
2021/09/16 04:31:39;;;;;;;;;;;;;;;12.38;58.36;99825.19;3361952;29;19987;-78
2021/09/16 04:33:20;;;;;;;;;;;;;;;12.40;58.38;99825.81;3362546;29;19932;-76
2021/09/16 04:35:01;;;;;;;;;;;;;;;12.38;58.65;99817.19;3361558;29;19938;-76
2021/09/16 04:36:41;;;;;;;;;;;;;;;12.37;58.53;99826.22;3363014;29;19928;-81
2021/09/16 04:38:22;;;;;;;;;;;;;;;12.35;58.39;99823.75;3361911;29;19928;-73
2021/09/16 04:40:03;;;;;;;;;;;;;;;12.37;58.54;99832.41;3358380;29;19950;-75
2021/09/16 04:41:43;;;;;;;;;;;;;;;12.38;58.94;99828.69;3350023;29;19928;-74
2021/09/16 04:43:24;;;;;;;;;;;;;;;12.38;59.01;99833.22;3349998;29;19936;-73
2021/09/16 04:45:05;;;;;;;;;;;;;;;12.38;59.10;99830.53;3349787;29;19928;-72
2021/09/16 04:46:45;;;;;;;;;;;;;;;12.35;59.62;99831.78;3349672;29;20018;-73
2021/09/16 04:48:26;;;;;;;;;;;;;;;12.32;59.33;99831.38;3349703;29;19928;-74
2021/09/16 04:50:10;;;;;;;;;;;;;;;12.31;59.84;99830.50;3353477;29;20015;-75
2021/09/16 04:51:50;;;;;;;;;;;;;;;12.31;60.02;99832.38;3361757;29;19934;-73
2021/09/16 04:53:31;;;;;;;;;;;;;;;12.28;59.72;99835.44;3362486;29;20492;-73
2021/09/16 04:55:11;;;;;;;;;;;;;;;12.26;59.89;99827.63;3362425;29;19932;-73
2021/09/16 04:56:52;;;;;;;;;;;;;;;12.27;60.11;99831.16;3362389;29;19978;-74
2021/09/16 04:58:32;;;;;;;;;;;;;;;12.26;59.96;99829.47;3362406;29;19978;-75
2021/09/16 05:00:13;;;;;;;;;;;;;;;12.26;60.32;99834.81;3357438;29;20581;-73
2021/09/16 05:01:53;;;;;;;;;;;;;;;12.26;60.11;99837.50;3349685;29;19932;-74
2021/09/16 05:03:34;;;;;;;;;;;;;;;12.20;60.52;99842.63;3350315;29;20312;-75
2021/09/16 05:05:16;;;;;;;;;;;;;;;12.17;60.36;99832.34;3358648;29;19951;-73
2021/09/16 05:06:56;;;;;;;;;;;;;;;12.20;60.33;99831.13;3348721;29;19928;-73
2021/09/16 05:08:37;;;;;;;;;;;;;;;12.23;60.28;99828.84;3348787;29;19948;-79
2021/09/16 05:10:17;;;;;;;;;;;;;;;12.28;60.10;99832.78;3338700;29;19928;-76
2021/09/16 05:11:58;;;;;;;;;;;;;;;12.30;60.23;99830.72;3359794;29;20347;-74
2021/09/16 05:13:38;;;;;;;;;;;;;;;12.33;60.21;99841.84;3361597;29;19931;-72
2021/09/16 05:15:19;;;;;;;;;;;;;;;12.37;60.36;99848.44;3362521;29;19935;-75
2021/09/16 05:16:59;;;;;;;;;;;;;;;12.38;60.31;99841.22;3362924;29;20330;-75
2021/09/16 05:18:40;;;;;;;;;;;;;;;12.39;60.61;99846.38;3362136;29;20483;-79
2021/09/16 05:20:21;;;;;;;;;;;;;;;12.42;60.63;99840.63;3354917;29;19932;-76
2021/09/16 05:22:02;;;;;;;;;;;;;;;12.43;60.57;99844.13;3349798;29;19928;-76
2021/09/16 05:23:42;;;;;;;;;;;;;;;12.43;60.70;99844.94;3348891;29;20355;-74
2021/09/16 05:25:23;;;;;;;;;;;;;;;12.47;60.75;99845.38;3349728;29;19929;-74
2021/09/16 05:27:03;;;;;;;;;;;;;;;12.50;60.77;99844.97;3337307;29;19928;-76
2021/09/16 05:28:44;;;;;;;;;;;;;;;12.52;60.98;99842.06;3346103;29;19935;-75
2021/09/16 05:30:25;;;;;;;;;;;;;;;12.49;60.94;99835.28;3359198;29;19927;-76
2021/09/16 05:32:05;;;;;;;;;;;;;;;12.51;60.75;99843.09;3366113;29;20463;-82
2021/09/16 05:33:46;;;;;;;;;;;;;;;12.54;61.50;99846.19;3364626;29;19928;-75
2021/09/16 05:35:27;;;;;;;;;;;;;;;12.59;60.99;99843.72;3364350;29;19935;-81
2021/09/16 05:37:08;;;;;;;;;;;;;;;12.66;61.14;99849.91;3363798;29;19927;-75
2021/09/16 05:38:48;;;;;;;;;;;;;;;12.72;61.04;99840.25;3360951;29;19927;-76
2021/09/16 05:40:29;;;;;;;;;;;;;;;12.76;60.77;99851.38;3353825;29;19935;-76
2021/09/16 05:42:09;;;;;;;;;;;;;;;12.77;60.63;99848.47;3358351;29;20395;-76
2021/09/16 05:43:50;;;;;;;;;;;;;;;12.80;60.86;99847.25;3362128;29;20019;-75
2021/09/16 05:45:30;;;;;;;;;;;;;;;12.83;60.99;99854.84;3361044;29;19928;-75
2021/09/16 05:47:11;;;;;;;;;;;;;;;12.86;60.93;99851.78;3355013;29;19936;-80
2021/09/16 05:48:52;;;;;;;;;;;;;;;12.91;60.79;99854.69;3352624;29;19927;-75
2021/09/16 05:50:32;;;;;;;;;;;;;;;12.98;60.65;99850.13;3351259;29;19928;-76
2021/09/16 05:52:13;;;;;;;;;;;;;;;13.07;60.76;99854.25;3354446;29;20376;-75
2021/09/16 05:53:53;;;;;;;;;;;;;;;13.15;60.56;99858.56;3352911;29;19976;-76
2021/09/16 05:55:38;;;;;;;;;;;;;;;13.22;60.28;99858.56;3351275;29;19928;-77
2021/09/16 05:57:19;;;;;;;;;;;;;;;13.36;60.53;99857.53;3350372;29;19928;-77
2021/09/16 05:58:59;;;;;;;;;;;;;;;13.44;60.53;99862.66;3356447;29;19982;-78
2021/09/16 06:00:40;;;;;;;;;;;;;;;13.50;60.15;99866.34;3363664;29;19928;-78
2021/09/16 06:02:20;;;;;;;;;;;;;;;13.53;59.87;99864.09;3355955;29;19932;-77
2021/09/16 06:04:01;;;;;;;;;;;;;;;13.57;59.82;99872.53;3355594;29;19983;-75
2021/09/16 06:05:41;;;;;;;;;;;;;;;13.59;59.88;99872.34;3355587;29;19939;-77
2021/09/16 06:07:22;;;;;;;;;;;;;;;13.61;59.53;99864.91;3353178;29;19928;-75
2021/09/16 06:09:03;;;;;;;;;;;;;;;13.72;59.83;99867.75;3355741;29;19935;-77
2021/09/16 06:10:44;;;;;;;;;;;;;;;13.87;59.81;99872.88;3362608;29;19927;-77
2021/09/16 06:12:27;;;;;;;;;;;;;;;13.98;59.48;99870.56;3360659;29;19928;-78
2021/09/16 06:14:07;;;;;;;;;;;;;;;14.06;59.14;99873.00;3342519;29;20055;-77
2021/09/16 06:15:48;;;;;;;;;;;;;;;14.10;58.90;99875.03;3354445;29;19928;-77
2021/09/16 06:17:28;;;;;;;;;;;;;;;14.16;59.12;99876.88;3351226;29;20023;-77
2021/09/16 06:19:09;;;;;;;;;;;;;;;14.23;58.49;99884.88;3354236;29;19928;-77
2021/09/16 06:20:50;;;;;;;;;;;;;;;14.36;58.57;99874.09;3353212;29;19932;-77
2021/09/16 06:22:30;;;;;;;;;;;;;;;14.44;58.30;99873.03;3343216;29;20011;-76
2021/09/16 06:24:11;;;;;;;;;;;;;;;14.47;58.21;99882.50;3352929;29;19935;-76
2021/09/16 06:26:10;;;;;;;;;;;;;;;14.51;58.04;99873.81;3350949;29;19935;-75
2021/09/16 06:27:50;;;;;;;;;;;;;;;14.55;57.91;99887.63;3363018;29;19927;-76
2021/09/16 06:29:32;;;;;;;;;;;;;;;14.64;57.75;99886.34;3359021;29;19989;-77
2021/09/16 06:31:14;;;;;;;;;;;;;;;14.79;57.69;99884.19;3362606;29;20443;-76
2021/09/16 06:32:56;;;;;;;;;;;;;;;14.82;57.30;99883.75;3360936;29;19931;-74
2021/09/16 06:34:37;;;;;;;;;;;;;;;14.76;57.19;99889.97;3358510;29;19928;-74
2021/09/16 06:36:18;;;;;;;;;;;;;;;14.65;57.05;99885.28;3362865;29;19928;-74
2021/09/16 06:38:02;;;;;;;;;;;;;;;14.53;56.69;99890.53;3360926;29;19934;-75
2021/09/16 06:39:43;;;;;;;;;;;;;;;14.42;56.86;99887.69;3349382;29;20576;-74
2021/09/16 06:41:24;;;;;;;;;;;;;;;14.31;56.86;99894.53;3354606;29;19987;-75
2021/09/16 06:43:05;;;;;;;;;;;;;;;14.22;56.96;99893.94;3352180;29;19928;-73
2021/09/16 06:44:47;;;;;;;;;;;;;;;14.14;56.91;99895.00;3353012;29;19971;-75
2021/09/16 06:46:28;;;;;;;;;;;;;;;14.11;57.11;99890.06;3353895;29;19935;-76
2021/09/16 06:48:10;;;;;;;;;;;;;;;14.07;56.95;99891.56;3350306;29;19928;-75
2021/09/16 06:50:09;;;;;;;;;;;;;;;14.05;56.91;99898.16;3350515;29;19992;-75
2021/09/16 06:51:50;;;;;;;;;;;;;;;14.03;56.71;99908.28;3362910;29;19980;-75
2021/09/16 06:53:31;;;;;;;;;;;;;;;13.99;56.66;99896.31;3363709;29;20063;-74
2021/09/16 06:55:13;;;;;;;;;;;;;;;13.96;56.56;99902.91;3363734;29;19928;-75
2021/09/16 06:56:53;;;;;;;;;;;;;;;13.93;56.79;99901.47;3363132;29;19971;-76
2021/09/16 06:58:34;;;;;;;;;;;;;;;13.90;56.75;99904.59;3364034;29;19928;-76
2021/09/16 07:00:15;;;;;;;;;;;;;;;13.86;56.55;99899.84;3363267;29;19928;-75
2021/09/16 07:01:55;;;;;;;;;;;;;;;13.84;56.44;99908.13;3363458;29;20311;-75
2021/09/16 07:03:36;;;;;;;;;;;;;;;13.83;56.44;99906.47;3357410;29;19928;-74
2021/09/16 07:05:17;;;;;;;;;;;;;;;13.81;56.13;99903.19;3363138;29;19923;-75
2021/09/16 07:07:03;;;;;;;;;;;;;;;13.80;56.54;99908.75;3363587;29;20403;-74
2021/09/16 07:08:45;;;;;;;;;;;;;;;13.78;56.48;99908.94;3352879;29;19928;-72
2021/09/16 07:10:26;;;;;;;;;;;;;;;13.78;56.48;99913.50;3350559;29;20019;-76
2021/09/16 07:12:06;;;;;;;;;;;;;;;13.78;56.41;99903.59;3357408;29;20309;-78
2021/09/16 07:13:47;;;;;;;;;;;;;;;13.78;56.41;99906.25;3362438;29;20428;-73
2021/09/16 07:15:28;;;;;;;;;;;;;;;13.78;56.20;99913.50;3359140;29;19927;-76
2021/09/16 07:17:08;;;;;;;;;;;;;;;13.76;56.39;99908.34;3363435;29;19983;-78
2021/09/16 07:18:49;;;;;;;;;;;;;;;13.78;56.10;99913.50;3365907;29;20291;-79
2021/09/16 07:20:30;;;;;;;;;;;;;;;13.87;56.59;99915.72;3363578;29;19924;-80
2021/09/16 07:22:11;;;;;;;;;;;;;;;13.98;56.49;99913.44;3363997;29;19932;-79
2021/09/16 07:23:51;;;;;;;;;;;;;;;14.06;56.58;99915.88;3362502;29;20030;-80
2021/09/16 07:25:32;;;;;;;;;;;;;;;14.14;56.37;99915.63;3350064;29;19968;-78
2021/09/16 07:27:12;;;;;;;;;;;;;;;14.28;56.23;99917.25;3360352;29;19928;-80
2021/09/16 07:28:53;;;;;;;;;;;;;;;14.47;56.18;99917.34;3364011;29;19928;-79
2021/09/16 07:30:34;;;;;;;;;;;;;;;14.60;56.30;99922.69;3364061;29;20014;-79
2021/09/16 07:32:14;;;;;;;;;;;;;;;14.66;55.79;99923.66;3363776;29;19919;-80
2021/09/16 07:33:55;;;;;;;;;;;;;;;14.68;55.71;99919.72;3364098;29;19934;-79
2021/09/16 07:35:36;;;;;;;;;;;;;;;14.80;55.88;99923.38;3363810;29;20393;-79
2021/09/16 07:37:17;;;;;;;;;;;;;;;14.98;55.77;99916.47;3363742;29;19928;-79
2021/09/16 07:38:57;;;;;;;;;;;;;;;15.20;55.54;99917.69;3364333;29;19934;-79
2021/09/16 07:40:38;;;;;;;;;;;;;;;15.44;55.14;99924.13;3364104;29;19967;-79
2021/09/16 07:42:18;;;;;;;;;;;;;;;15.59;54.84;99928.31;3364167;29;19932;-79
2021/09/16 07:43:59;;;;;;;;;;;;;;;15.63;54.23;99922.28;3367076;29;19960;-79
2021/09/16 07:45:39;;;;;;;;;;;;;;;15.58;53.85;99922.13;3365181;29;19928;-79
2021/09/16 07:47:20;;;;;;;;;;;;;;;15.50;53.96;99922.41;3366306;29;20012;-79
2021/09/16 07:49:00;;;;;;;;;;;;;;;15.45;54.16;99919.56;3366370;29;20352;-79
2021/09/16 07:50:41;;;;;;;;;;;;;;;15.45;53.87;99933.00;3363695;29;20427;-79
2021/09/16 07:52:22;;;;;;;;;;;;;;;15.41;53.79;99927.25;3374918;29;19928;-79
2021/09/16 07:54:02;;;;;;;;;;;;;;;15.32;53.70;99931.25;3376485;29;19927;-79
2021/09/16 07:55:45;;;;;;;;;;;;;;;15.31;54.15;99928.78;3375544;29;19953;-78
2021/09/16 07:57:25;;;;;;;;;;;;;;;15.40;53.93;99932.84;3376924;29;19916;-79
2021/09/16 07:59:06;;;;;;;;;;;;;;;15.44;53.92;99939.44;3377378;29;19928;-79
2021/09/16 08:00:47;;;;;;;;;;;;;;;15.45;53.60;99935.69;3377770;29;19928;-80
2021/09/16 08:02:28;;;;;;;;;;;;;;;15.45;53.57;99943.75;3376643;29;19928;-79
2021/09/16 08:04:08;;;;;;;;;;;;;;;15.50;53.82;99941.22;3368485;29;20454;-79
2021/09/16 08:05:49;;;;;;;;;;;;;;;15.52;53.33;99938.31;3363817;29;19927;-78
2021/09/16 08:07:29;;;;;;;;;;;;;;;15.56;53.59;99942.19;3363662;29;19928;-78
2021/09/16 08:09:10;;;;;;;;;;;;;;;15.62;53.33;99936.78;3364348;29;19970;-78
2021/09/16 08:10:50;;;;;;;;;;;;;;;15.68;53.44;99935.06;3363561;29;20022;-80
2021/09/16 08:12:31;;;;;;;;;;;;;;;15.77;52.99;99941.00;3363869;29;19928;-79
2021/09/16 08:14:12;;;;;;;;;;;;;;;15.79;53.11;99945.09;3363453;29;19927;-78
2021/09/16 08:15:53;;;;;;;;;;;;;;;15.87;52.94;99941.31;3363771;29;19927;-79
2021/09/16 08:17:34;;;;;;;;;;;;;;;15.93;52.35;99937.75;3363807;29;19927;-77
2021/09/16 08:19:14;;;;;;;;;;;;;;;15.92;52.07;99939.59;3363726;29;19931;-80
2021/09/16 08:20:55;;;;;;;;;;;;;;;15.89;52.20;99941.91;3362526;29;19975;-78
2021/09/16 08:22:36;;;;;;;;;;;;;;;15.80;52.41;99936.00;3363425;29;19977;-79
2021/09/16 08:24:16;;;;;;;;;;;;;;;15.82;52.06;99950.03;3363123;29;19927;-79
2021/09/16 08:25:57;;;;;;;;;;;;;;;15.80;52.31;99937.84;3349315;29;20296;-80
2021/09/16 08:27:37;;;;;;;;;;;;;;;15.81;52.32;99928.75;3360087;29;19947;-80
2021/09/16 08:29:18;;;;;;;;;;;;;;;15.84;52.11;99931.81;3362190;29;19923;-78
2021/09/16 08:30:59;;;;;;;;;;;;;;;15.85;52.08;99938.00;3361374;29;20357;-80
2021/09/16 08:32:39;;;;;;;;;;;;;;;15.83;52.00;99937.44;3362150;29;20411;-79
2021/09/16 08:34:22;;;;;;;;;;;;;;;15.77;51.74;99936.44;3359596;29;19928;-79
2021/09/16 08:36:03;;;;;;;;;;;;;;;15.69;51.90;99937.56;3362915;29;19928;-79
2021/09/16 08:37:44;;;;;;;;;;;;;;;15.59;52.01;99936.38;3363500;29;19927;-81
2021/09/16 08:39:24;;;;;;;;;;;;;;;15.51;52.47;99934.78;3364119;29;19951;-79
2021/09/16 08:41:05;;;;;;;;;;;;;;;15.43;52.38;99937.78;3363525;29;19931;-79
2021/09/16 08:42:46;;;;;;;;;;;;;;;15.39;52.48;99940.09;3349510;29;19935;-80
2021/09/16 08:44:26;;;;;;;;;;;;;;;15.42;52.45;99936.94;3360248;29;19950;-78
2021/09/16 08:46:07;;;;;;;;;;;;;;;15.52;52.38;99943.69;3362968;29;19934;-79